Connecticut River @ North Walpole, Nh

Connecticut River at North Walpole
 Total Drainage Area: 5,493 sq. miles 
 Drainage Area Controlled by Corps Dams: 504 sq. miles (9%) 
 Warning Flow/Stage: 65,100 cfs / 24.0 feet 
 Flood Flow/Stage: 92,800 cfs / 30.0 feet 
Date Time
(Eastern)
Stage
(ft)
Flow
(cfs)
CSM
(cfs / sq. mi.)
Precip.
(in)
Air Temp.
(F)
Jun-25 12:30 am 12.05 14,825 2.7 7.32 59.9
Jun-24 11:30 pm 12.14 15,114 2.8 7.32 62.5
Jun-24 10:30 pm 12.51 16,331 3.0 7.32 64.2
Jun-24 09:30 pm 12.52 16,365 3.0 7.32 63.8
Jun-24 08:30 pm 12.52 16,365 3.0 7.32 63.6
Jun-24 07:30 pm 12.25 15,471 2.8 7.32 63.7
Jun-24 06:30 pm 12.24 15,438 2.8 7.32 64.4
Jun-24 05:30 pm 12.26 15,503 2.8 7.31 67.8
Jun-24 04:30 pm 12.35 15,799 2.9 7.31 69.7
Jun-24 03:30 pm 12.28 15,569 2.8 7.31 65.9
Jun-24 02:30 pm 12.30 15,634 2.9 7.31 71.6
Jun-24 01:30 pm 12.30 15,634 2.9 7.31 69.8
Jun-24 12:30 pm 12.40 15,964 2.9 7.31 68.5
Jun-24 11:30 am 12.51 16,331 3.0 7.31 70.5
Jun-24 10:30 am 11.47 13,030 2.4 7.31 68.4
Jun-24 09:30 am 10.79 11,074 2.0 7.31 69.2
Jun-24 08:30 am 10.80 11,102 2.0 7.31 66.2
Jun-24 07:30 am 10.78 11,047 2.0 7.31 65.8
Jun-24 06:30 am 10.78 11,047 2.0 7.31 65.5
Jun-24 05:30 am 10.71 10,855 2.0 7.31 67.5
Jun-24 04:30 am 10.28 9,712 1.8 7.31 68.5
Jun-24 03:30 am 10.28 9,712 1.8 7.31 69.2
Jun-24 02:30 am 10.31 9,790 1.8 7.31 70.7
Jun-24 01:30 am 10.24 9,609 1.8 7.31 70.8
Jun-24 12:30 am 9.96 8,904 1.6 7.30 70.3
Report Generated June 25, 2024 01:28 am